sensor_id;sensor_type;location;lat;lon;timestamp;temperature;humidity
55331;DHT22;58851;42.984;20.336;2022-10-23T00:03:42;230.70;6502.40
55331;DHT22;58851;42.984;20.336;2022-10-23T00:06:08;230.80;6502.40
55331;DHT22;58851;42.984;20.336;2022-10-23T00:08:34;230.80;6502.40
55331;DHT22;58851;42.984;20.336;2022-10-23T00:11:00;230.70;6502.40
55331;DHT22;58851;42.984;20.336;2022-10-23T00:13:26;230.80;6502.40
55331;DHT22;58851;42.984;20.336;2022-10-23T00:15:51;230.80;6502.40
55331;DHT22;58851;42.984;20.336;2022-10-23T00:18:17;230.80;6502.40
55331;DHT22;58851;42.984;20.336;2022-10-23T00:20:43;230.70;6502.40
55331;DHT22;58851;42.984;20.336;2022-10-23T00:23:09;230.70;6502.40
55331;DHT22;58851;42.984;20.336;2022-10-23T00:25:35;230.60;6502.40
55331;DHT22;58851;42.984;20.336;2022-10-23T00:28:03;230.60;6502.40
55331;DHT22;58851;42.984;20.336;2022-10-23T00:30:29;230.70;6502.40
55331;DHT22;58851;42.984;20.336;2022-10-23T00:32:54;230.60;6502.40
55331;DHT22;58851;42.984;20.336;2022-10-23T00:35:20;230.60;6502.40
55331;DHT22;58851;42.984;20.336;2022-10-23T00:37:46;230.50;6502.40
55331;DHT22;58851;42.984;20.336;2022-10-23T00:40:12;230.60;6502.40
55331;DHT22;58851;42.984;20.336;2022-10-23T00:42:37;230.60;6502.40
55331;DHT22;58851;42.984;20.336;2022-10-23T00:45:30;230.50;6502.40
55331;DHT22;58851;42.984;20.336;2022-10-23T00:47:58;230.50;6502.40
55331;DHT22;58851;42.984;20.336;2022-10-23T00:50:27;230.50;6502.40
55331;DHT22;58851;42.984;20.336;2022-10-23T00:52:55;230.50;6502.40
55331;DHT22;58851;42.984;20.336;2022-10-23T00:55:23;205.70;6502.40
55331;DHT22;58851;42.984;20.336;2022-10-23T00:57:50;230.40;6502.40
55331;DHT22;58851;42.984;20.336;2022-10-23T01:00:23;230.50;6502.40
55331;DHT22;58851;42.984;20.336;2022-10-23T01:02:49;230.50;6502.40
55331;DHT22;58851;42.984;20.336;2022-10-23T01:05:16;230.50;6502.40
55331;DHT22;58851;42.984;20.336;2022-10-23T01:08:05;230.40;6502.40
55331;DHT22;58851;42.984;20.336;2022-10-23T01:10:40;230.40;6502.40
55331;DHT22;58851;42.984;20.336;2022-10-23T01:13:16;230.40;6502.40
55331;DHT22;58851;42.984;20.336;2022-10-23T01:15:52;230.40;6502.40
55331;DHT22;58851;42.984;20.336;2022-10-23T01:18:24;230.40;6502.40
55331;DHT22;58851;42.984;20.336;2022-10-23T01:21:00;230.40;6502.40
55331;DHT22;58851;42.984;20.336;2022-10-23T01:29:07;205.70;6502.40
55331;DHT22;58851;42.984;20.336;2022-10-23T01:31:56;205.70;6502.40
55331;DHT22;58851;42.984;20.336;2022-10-23T01:34:29;205.60;6502.40
55331;DHT22;58851;42.984;20.336;2022-10-23T01:36:58;205.50;6502.40
55331;DHT22;58851;42.984;20.336;2022-10-23T01:39:34;205.60;6502.40
55331;DHT22;58851;42.984;20.336;2022-10-23T01:42:07;205.50;6502.40
55331;DHT22;58851;42.984;20.336;2022-10-23T01:44:35;205.50;6502.40
55331;DHT22;58851;42.984;20.336;2022-10-23T01:47:06;205.50;6502.40
55331;DHT22;58851;42.984;20.336;2022-10-23T01:49:32;205.50;6502.40
55331;DHT22;58851;42.984;20.336;2022-10-23T01:52:02;205.50;6502.40
55331;DHT22;58851;42.984;20.336;2022-10-23T01:54:31;205.50;6502.40
55331;DHT22;58851;42.984;20.336;2022-10-23T01:56:58;205.50;6502.40
55331;DHT22;58851;42.984;20.336;2022-10-23T01:59:30;205.30;6502.40
55331;DHT22;58851;42.984;20.336;2022-10-23T02:01:59;205.40;6502.40
55331;DHT22;58851;42.984;20.336;2022-10-23T02:04:33;205.50;6502.40
55331;DHT22;58851;42.984;20.336;2022-10-23T02:07:00;205.40;6502.40
55331;DHT22;58851;42.984;20.336;2022-10-23T02:09:26;205.30;6502.40
55331;DHT22;58851;42.984;20.336;2022-10-23T02:12:06;205.20;6502.40
55331;DHT22;58851;42.984;20.336;2022-10-23T02:15:21;205.30;6502.40
55331;DHT22;58851;42.984;20.336;2022-10-23T02:17:42;205.30;6502.40
55331;DHT22;58851;42.984;20.336;2022-10-23T02:22:59;205.20;6502.40
55331;DHT22;58851;42.984;20.336;2022-10-23T02:25:45;205.20;6502.40
55331;DHT22;58851;42.984;20.336;2022-10-23T02:28:16;205.20;6502.40
55331;DHT22;58851;42.984;20.336;2022-10-23T02:30:45;205.10;6502.40
55331;DHT22;58851;42.984;20.336;2022-10-23T02:33:12;205.10;6502.40
55331;DHT22;58851;42.984;20.336;2022-10-23T02:35:39;205.10;6502.40
55331;DHT22;58851;42.984;20.336;2022-10-23T02:38:27;205.10;6502.40
55331;DHT22;58851;42.984;20.336;2022-10-23T02:40:55;205.10;6502.40
55331;DHT22;58851;42.984;20.336;2022-10-23T02:43:31;204.90;6502.40
55331;DHT22;58851;42.984;20.336;2022-10-23T02:46:41;205.00;6502.40
55331;DHT22;58851;42.984;20.336;2022-10-23T02:51:58;204.90;6502.40
55331;DHT22;58851;42.984;20.336;2022-10-23T03:00:16;180.10;6502.40
55331;DHT22;58851;42.984;20.336;2022-10-23T03:05:20;180.10;6502.40
55331;DHT22;58851;42.984;20.336;2022-10-23T03:07:47;180.10;6502.40
55331;DHT22;58851;42.984;20.336;2022-10-23T03:10:13;179.90;6502.40
55331;DHT22;58851;42.984;20.336;2022-10-23T03:12:39;179.90;6502.40
55331;DHT22;58851;42.984;20.336;2022-10-23T03:15:06;180.00;6502.40
55331;DHT22;58851;42.984;20.336;2022-10-23T03:17:32;179.90;6502.40
55331;DHT22;58851;42.984;20.336;2022-10-23T03:19:58;179.80;6502.40
55331;DHT22;58851;42.984;20.336;2022-10-23T03:22:24;179.70;6502.40
55331;DHT22;58851;42.984;20.336;2022-10-23T03:24:51;179.80;6502.40
55331;DHT22;58851;42.984;20.336;2022-10-23T03:27:16;179.80;6502.40
55331;DHT22;58851;42.984;20.336;2022-10-23T03:29:42;179.70;6502.40
55331;DHT22;58851;42.984;20.336;2022-10-23T03:32:08;179.70;6502.40
55331;DHT22;58851;42.984;20.336;2022-10-23T03:34:34;179.80;6502.40
55331;DHT22;58851;42.984;20.336;2022-10-23T03:36:59;179.90;6502.40
55331;DHT22;58851;42.984;20.336;2022-10-23T03:39:25;179.90;6502.40
55331;DHT22;58851;42.984;20.336;2022-10-23T03:41:51;179.90;6502.40
55331;DHT22;58851;42.984;20.336;2022-10-23T03:44:17;179.90;6502.40
55331;DHT22;58851;42.984;20.336;2022-10-23T03:46:43;180.00;6502.40
55331;DHT22;58851;42.984;20.336;2022-10-23T03:49:09;180.00;6502.40
55331;DHT22;58851;42.984;20.336;2022-10-23T03:51:34;179.90;6502.40
55331;DHT22;58851;42.984;20.336;2022-10-23T03:54:01;179.90;6502.40
55331;DHT22;58851;42.984;20.336;2022-10-23T03:56:27;179.90;6502.40
55331;DHT22;58851;42.984;20.336;2022-10-23T03:58:52;179.90;6502.40
55331;DHT22;58851;42.984;20.336;2022-10-23T04:01:18;179.80;6502.40
55331;DHT22;58851;42.984;20.336;2022-10-23T04:03:44;179.80;6502.40
55331;DHT22;58851;42.984;20.336;2022-10-23T04:06:10;179.70;6502.40
55331;DHT22;58851;42.984;20.336;2022-10-23T04:08:35;179.70;6502.40
55331;DHT22;58851;42.984;20.336;2022-10-23T04:11:01;179.70;6502.40
55331;DHT22;58851;42.984;20.336;2022-10-23T04:13:27;179.60;6502.40
55331;DHT22;58851;42.984;20.336;2022-10-23T04:15:53;179.60;6502.40
55331;DHT22;58851;42.984;20.336;2022-10-23T04:18:19;179.60;6502.40
55331;DHT22;58851;42.984;20.336;2022-10-23T04:20:48;179.70;6502.40
55331;DHT22;58851;42.984;20.336;2022-10-23T04:23:15;179.70;6502.40
55331;DHT22;58851;42.984;20.336;2022-10-23T04:25:41;179.60;6502.40
55331;DHT22;58851;42.984;20.336;2022-10-23T04:28:07;179.70;6502.40
55331;DHT22;58851;42.984;20.336;2022-10-23T04:30:33;179.50;6502.40
55331;DHT22;58851;42.984;20.336;2022-10-23T04:32:59;179.60;6502.40
55331;DHT22;58851;42.984;20.336;2022-10-23T04:35:24;179.50;6502.40
55331;DHT22;58851;42.984;20.336;2022-10-23T04:37:50;179.50;6502.40
55331;DHT22;58851;42.984;20.336;2022-10-23T04:40:16;179.50;6502.40
55331;DHT22;58851;42.984;20.336;2022-10-23T04:42:42;179.50;6502.40
55331;DHT22;58851;42.984;20.336;2022-10-23T04:45:08;179.50;6502.40
55331;DHT22;58851;42.984;20.336;2022-10-23T04:47:34;179.50;6502.40
55331;DHT22;58851;42.984;20.336;2022-10-23T04:49:59;179.50;6502.40
55331;DHT22;58851;42.984;20.336;2022-10-23T04:52:25;179.50;6502.40
55331;DHT22;58851;42.984;20.336;2022-10-23T04:54:51;179.40;6502.40
55331;DHT22;58851;42.984;20.336;2022-10-23T04:57:17;179.50;6502.40
55331;DHT22;58851;42.984;20.336;2022-10-23T04:59:42;179.40;6502.40
55331;DHT22;58851;42.984;20.336;2022-10-23T05:02:08;179.50;6502.40
55331;DHT22;58851;42.984;20.336;2022-10-23T05:04:34;179.40;6502.40
55331;DHT22;58851;42.984;20.336;2022-10-23T05:07:00;179.40;6502.40
55331;DHT22;58851;42.984;20.336;2022-10-23T05:09:26;179.40;6502.40
55331;DHT22;58851;42.984;20.336;2022-10-23T05:11:52;179.40;6502.40
55331;DHT22;58851;42.984;20.336;2022-10-23T05:14:17;179.40;6502.40
55331;DHT22;58851;42.984;20.336;2022-10-23T05:16:51;179.40;6502.40
55331;DHT22;58851;42.984;20.336;2022-10-23T05:19:31;179.40;6502.40
55331;DHT22;58851;42.984;20.336;2022-10-23T05:21:59;179.50;6502.40
55331;DHT22;58851;42.984;20.336;2022-10-23T05:24:26;179.50;6502.40
55331;DHT22;58851;42.984;20.336;2022-10-23T05:26:52;179.50;6502.40
55331;DHT22;58851;42.984;20.336;2022-10-23T05:29:18;179.60;6502.40
55331;DHT22;58851;42.984;20.336;2022-10-23T05:31:45;179.60;6502.40
55331;DHT22;58851;42.984;20.336;2022-10-23T05:34:13;179.60;6502.40
55331;DHT22;58851;42.984;20.336;2022-10-23T05:36:40;179.60;6502.40
55331;DHT22;58851;42.984;20.336;2022-10-23T05:39:05;179.60;6502.40
55331;DHT22;58851;42.984;20.336;2022-10-23T05:41:31;179.60;6502.40
55331;DHT22;58851;42.984;20.336;2022-10-23T05:43:57;179.70;6502.40
55331;DHT22;58851;42.984;20.336;2022-10-23T05:46:23;179.70;6502.40
55331;DHT22;58851;42.984;20.336;2022-10-23T05:48:49;179.80;6502.40
55331;DHT22;58851;42.984;20.336;2022-10-23T05:51:16;179.90;6502.40
55331;DHT22;58851;42.984;20.336;2022-10-23T05:53:47;180.00;6502.40
55331;DHT22;58851;42.984;20.336;2022-10-23T05:56:13;180.00;6502.40
55331;DHT22;58851;42.984;20.336;2022-10-23T05:58:39;180.10;6502.40
55331;DHT22;58851;42.984;20.336;2022-10-23T06:01:07;180.10;6502.40
55331;DHT22;58851;42.984;20.336;2022-10-23T06:03:34;204.80;6502.40
55331;DHT22;58851;42.984;20.336;2022-10-23T06:06:00;204.80;6502.40
55331;DHT22;58851;42.984;20.336;2022-10-23T06:08:26;204.90;6502.40
55331;DHT22;58851;42.984;20.336;2022-10-23T06:10:52;205.00;6502.40
55331;DHT22;58851;42.984;20.336;2022-10-23T06:13:17;205.10;6502.40
55331;DHT22;58851;42.984;20.336;2022-10-23T06:15:43;205.10;6502.40
55331;DHT22;58851;42.984;20.336;2022-10-23T06:18:09;205.30;6502.40
55331;DHT22;58851;42.984;20.336;2022-10-23T06:20:37;205.40;6502.40
55331;DHT22;58851;42.984;20.336;2022-10-23T06:23:04;205.50;6502.40
55331;DHT22;58851;42.984;20.336;2022-10-23T06:25:30;205.50;6502.40
55331;DHT22;58851;42.984;20.336;2022-10-23T06:27:56;205.70;6502.40
55331;DHT22;58851;42.984;20.336;2022-10-23T06:30:22;230.40;6502.40
55331;DHT22;58851;42.984;20.336;2022-10-23T06:32:49;230.50;6502.40
55331;DHT22;58851;42.984;20.336;2022-10-23T06:35:15;230.60;512.00
55331;DHT22;58851;42.984;20.336;2022-10-23T06:37:40;230.70;6502.40
55331;DHT22;58851;42.984;20.336;2022-10-23T06:40:07;230.70;6502.40
55331;DHT22;58851;42.984;20.336;2022-10-23T06:42:33;230.90;6502.40
55331;DHT22;58851;42.984;20.336;2022-10-23T06:44:59;230.90;128.00
55331;DHT22;58851;42.984;20.336;2022-10-23T06:47:25;231.10;6502.40
55331;DHT22;58851;42.984;20.336;2022-10-23T06:49:51;231.30;128.00
55331;DHT22;58851;42.984;20.336;2022-10-23T06:52:17;231.30;6502.40
55331;DHT22;58851;42.984;20.336;2022-10-23T06:54:42;256.10;6502.40
55331;DHT22;58851;42.984;20.336;2022-10-23T06:57:08;256.10;6502.40
55331;DHT22;58851;42.984;20.336;2022-10-23T06:59:34;256.30;6502.40
55331;DHT22;58851;42.984;20.336;2022-10-23T07:02:00;256.40;6502.40
55331;DHT22;58851;42.984;20.336;2022-10-23T07:04:25;256.40;6502.40
55331;DHT22;58851;42.984;20.336;2022-10-23T07:06:54;256.70;6502.40
55331;DHT22;58851;42.984;20.336;2022-10-23T07:09:21;256.80;6502.40
55331;DHT22;58851;42.984;20.336;2022-10-23T07:11:47;281.60;6528.00
55331;DHT22;58851;42.984;20.336;2022-10-23T07:14:13;281.80;6528.00
55331;DHT22;58851;42.984;20.336;2022-10-23T07:16:39;282.00;6528.00
55331;DHT22;58851;42.984;20.336;2022-10-23T07:19:05;282.10;6528.00
55331;DHT22;58851;42.984;20.336;2022-10-23T07:21:33;282.20;6528.00
55331;DHT22;58851;42.984;20.336;2022-10-23T07:24:02;282.50;6528.00
55331;DHT22;58851;42.984;20.336;2022-10-23T07:26:28;307.20;128.00
55331;DHT22;58851;42.984;20.336;2022-10-23T07:28:54;307.20;128.00
55331;DHT22;58851;42.984;20.336;2022-10-23T07:31:21;307.20;128.00
55331;DHT22;58851;42.984;20.336;2022-10-23T07:33:47;307.20;128.00
55331;DHT22;58851;42.984;20.336;2022-10-23T07:36:13;307.40;128.00
55331;DHT22;58851;42.984;20.336;2022-10-23T07:38:39;307.60;128.00
55331;DHT22;58851;42.984;20.336;2022-10-23T07:41:05;307.60;128.00
55331;DHT22;58851;42.984;20.336;2022-10-23T07:43:31;307.70;128.00
55331;DHT22;58851;42.984;20.336;2022-10-23T07:45:58;307.90;128.00
55331;DHT22;58851;42.984;20.336;2022-10-23T07:48:24;308.00;128.00
55331;DHT22;58851;42.984;20.336;2022-10-23T07:50:52;308.10;128.00
55331;DHT22;58851;42.984;20.336;2022-10-23T07:53:21;332.80;128.00
55331;DHT22;58851;42.984;20.336;2022-10-23T07:55:57;332.80;128.00
55331;DHT22;58851;42.984;20.336;2022-10-23T07:58:24;333.00;128.00
55331;DHT22;58851;42.984;20.336;2022-10-23T08:00:55;333.10;128.00
55331;DHT22;58851;42.984;20.336;2022-10-23T08:03:26;333.10;128.00
55331;DHT22;58851;42.984;20.336;2022-10-23T08:05:53;333.20;128.00
55331;DHT22;58851;42.984;20.336;2022-10-23T08:08:20;333.30;128.00
55331;DHT22;58851;42.984;20.336;2022-10-23T08:10:47;333.30;128.00
55331;DHT22;58851;42.984;20.336;2022-10-23T08:13:13;333.50;128.00
55331;DHT22;58851;42.984;20.336;2022-10-23T08:15:40;333.70;128.00
55331;DHT22;58851;42.984;20.336;2022-10-23T08:18:06;358.40;128.00
55331;DHT22;58851;42.984;20.336;2022-10-23T08:20:44;358.60;128.00
55331;DHT22;58851;42.984;20.336;2022-10-23T08:23:11;358.80;128.00
55331;DHT22;58851;42.984;20.336;2022-10-23T08:25:37;359.00;128.00
55331;DHT22;58851;42.984;20.336;2022-10-23T08:28:05;359.10;128.00
55331;DHT22;58851;42.984;20.336;2022-10-23T08:30:31;384.00;128.00
55331;DHT22;58851;42.984;20.336;2022-10-23T08:32:56;384.00;128.00
55331;DHT22;58851;42.984;20.336;2022-10-23T08:35:22;384.10;128.00
55331;DHT22;58851;42.984;20.336;2022-10-23T08:37:48;384.30;128.00
55331;DHT22;58851;42.984;20.336;2022-10-23T08:40:16;384.40;128.00
55331;DHT22;58851;42.984;20.336;2022-10-23T08:42:47;384.60;128.00
55331;DHT22;58851;42.984;20.336;2022-10-23T08:47:55;409.60;128.00
55331;DHT22;58851;42.984;20.336;2022-10-23T08:50:40;409.80;128.00
55331;DHT22;58851;42.984;20.336;2022-10-23T08:53:24;410.00;128.00
55331;DHT22;58851;42.984;20.336;2022-10-23T08:59:21;410.30;128.00
55331;DHT22;58851;42.984;20.336;2022-10-23T09:04:27;435.40;128.00
55331;DHT22;58851;42.984;20.336;2022-10-23T09:07:08;435.60;128.00
55331;DHT22;58851;42.984;20.336;2022-10-23T09:10:09;435.80;128.00
55331;DHT22;58851;42.984;20.336;2022-10-23T09:12:40;436.00;128.00
55331;DHT22;58851;42.984;20.336;2022-10-23T09:15:38;436.10;128.00
55331;DHT22;58851;42.984;20.336;2022-10-23T09:18:13;460.90;128.00
55331;DHT22;58851;42.984;20.336;2022-10-23T09:20:41;461.00;128.00
55331;DHT22;58851;42.984;20.336;2022-10-23T09:23:16;461.20;128.00
55331;DHT22;58851;42.984;20.336;2022-10-23T09:25:44;461.40;128.00
55331;DHT22;58851;42.984;20.336;2022-10-23T09:28:19;461.50;128.00
55331;DHT22;58851;42.984;20.336;2022-10-23T09:30:46;461.70;128.00
55331;DHT22;58851;42.984;20.336;2022-10-23T09:33:22;486.40;128.00
55331;DHT22;58851;42.984;20.336;2022-10-23T09:36:20;486.50;128.00
55331;DHT22;58851;42.984;20.336;2022-10-23T09:38:50;486.60;128.00
55331;DHT22;58851;42.984;20.336;2022-10-23T09:41:31;486.60;128.00
55331;DHT22;58851;42.984;20.336;2022-10-23T09:44:20;486.70;128.00
55331;DHT22;58851;42.984;20.336;2022-10-23T09:46:49;486.60;128.00
55331;DHT22;58851;42.984;20.336;2022-10-23T09:49:21;486.70;128.00
55331;DHT22;58851;42.984;20.336;2022-10-23T09:54:20;486.90;128.00
55331;DHT22;58851;42.984;20.336;2022-10-23T09:56:49;487.00;128.00
55331;DHT22;58851;42.984;20.336;2022-10-23T09:59:19;487.20;128.00
55331;DHT22;58851;42.984;20.336;2022-10-23T10:01:50;487.30;128.00
55331;DHT22;58851;42.984;20.336;2022-10-23T10:04:17;512.10;128.00
55331;DHT22;58851;42.984;20.336;2022-10-23T10:06:43;512.20;128.00
55331;DHT22;58851;42.984;20.336;2022-10-23T10:09:16;512.30;128.00
55331;DHT22;58851;42.984;20.336;2022-10-23T10:11:55;512.50;128.00
55331;DHT22;58851;42.984;20.336;2022-10-23T10:14:58;512.50;128.00
55331;DHT22;58851;42.984;20.336;2022-10-23T10:17:40;512.60;128.00
55331;DHT22;58851;42.984;20.336;2022-10-23T10:32:23;537.80;128.00
55331;DHT22;58851;42.984;20.336;2022-10-23T10:34:48;538.10;128.00
55331;DHT22;58851;42.984;20.336;2022-10-23T10:37:40;538.30;128.00
55331;DHT22;58851;42.984;20.336;2022-10-23T10:45:32;563.50;128.00
55331;DHT22;58851;42.984;20.336;2022-10-23T10:51:01;563.40;128.00
55331;DHT22;58851;42.984;20.336;2022-10-23T10:53:50;563.50;128.00
55331;DHT22;58851;42.984;20.336;2022-10-23T10:56:22;563.70;128.00
55331;DHT22;58851;42.984;20.336;2022-10-23T11:01:35;563.70;128.00
55331;DHT22;58851;42.984;20.336;2022-10-23T11:04:31;563.80;128.00
55331;DHT22;58851;42.984;20.336;2022-10-23T11:07:04;563.70;128.00
55331;DHT22;58851;42.984;20.336;2022-10-23T11:09:31;563.70;128.00
55331;DHT22;58851;42.984;20.336;2022-10-23T11:11:57;563.70;128.00
55331;DHT22;58851;42.984;20.336;2022-10-23T11:14:25;563.70;128.00
55331;DHT22;58851;42.984;20.336;2022-10-23T11:19:44;563.70;128.00
55331;DHT22;58851;42.984;20.336;2022-10-23T11:28:12;564.00;128.00
55331;DHT22;58851;42.984;20.336;2022-10-23T11:36:42;588.80;128.00
55331;DHT22;58851;42.984;20.336;2022-10-23T11:42:12;564.10;128.00
55331;DHT22;58851;42.984;20.336;2022-10-23T11:44:46;588.90;128.00
55331;DHT22;58851;42.984;20.336;2022-10-23T11:47:54;588.90;128.00
55331;DHT22;58851;42.984;20.336;2022-10-23T12:06:46;589.50;128.00
55331;DHT22;58851;42.984;20.336;2022-10-23T12:14:41;589.30;128.00
55331;DHT22;58851;42.984;20.336;2022-10-23T12:19:53;589.30;128.00
55331;DHT22;58851;42.984;20.336;2022-10-23T12:22:22;589.50;128.00
55331;DHT22;58851;42.984;20.336;2022-10-23T12:25:14;614.40;128.00
55331;DHT22;58851;42.984;20.336;2022-10-23T12:33:15;614.70;128.00
55331;DHT22;58851;42.984;20.336;2022-10-23T12:38:25;614.80;128.00
55331;DHT22;58851;42.984;20.336;2022-10-23T12:40:59;614.80;128.00
55331;DHT22;58851;42.984;20.336;2022-10-23T12:43:31;614.80;128.00
55331;DHT22;58851;42.984;20.336;2022-10-23T12:46:30;614.90;128.00
55331;DHT22;58851;42.984;20.336;2022-10-23T12:48:58;615.00;128.00
55331;DHT22;58851;42.984;20.336;2022-10-23T12:51:31;615.10;128.00
55331;DHT22;58851;42.984;20.336;2022-10-23T12:53:57;614.90;128.00
55331;DHT22;58851;42.984;20.336;2022-10-23T12:56:24;640.00;128.00
55331;DHT22;58851;42.984;20.336;2022-10-23T12:58:53;640.00;128.00
55331;DHT22;58851;42.984;20.336;2022-10-23T13:01:28;640.00;128.00
55331;DHT22;58851;42.984;20.336;2022-10-23T13:06:32;640.10;128.00
55331;DHT22;58851;42.984;20.336;2022-10-23T13:08:59;615.30;128.00
55331;DHT22;58851;42.984;20.336;2022-10-23T13:11:26;615.10;128.00
55331;DHT22;58851;42.984;20.336;2022-10-23T13:13:52;615.10;128.00
55331;DHT22;58851;42.984;20.336;2022-10-23T13:16:21;615.10;128.00
55331;DHT22;58851;42.984;20.336;2022-10-23T13:18:47;614.80;128.00
55331;DHT22;58851;42.984;20.336;2022-10-23T13:21:21;614.80;128.00
55331;DHT22;58851;42.984;20.336;2022-10-23T13:23:50;614.60;128.00
55331;DHT22;58851;42.984;20.336;2022-10-23T13:28:59;614.80;128.00
55331;DHT22;58851;42.984;20.336;2022-10-23T13:31:33;614.60;128.00
55331;DHT22;58851;42.984;20.336;2022-10-23T13:36:27;614.60;128.00
55331;DHT22;58851;42.984;20.336;2022-10-23T13:41:41;614.70;128.00
55331;DHT22;58851;42.984;20.336;2022-10-23T13:44:13;614.80;128.00
55331;DHT22;58851;42.984;20.336;2022-10-23T13:46:39;614.80;128.00
55331;DHT22;58851;42.984;20.336;2022-10-23T13:49:05;614.80;128.00
55331;DHT22;58851;42.984;20.336;2022-10-23T13:51:44;614.80;128.00
55331;DHT22;58851;42.984;20.336;2022-10-23T13:54:17;614.70;128.00
55331;DHT22;58851;42.984;20.336;2022-10-23T13:56:44;614.80;128.00
55331;DHT22;58851;42.984;20.336;2022-10-23T13:59:10;614.80;128.00
55331;DHT22;58851;42.984;20.336;2022-10-23T14:01:37;614.70;128.00
55331;DHT22;58851;42.984;20.336;2022-10-23T14:04:04;614.40;128.00
55331;DHT22;58851;42.984;20.336;2022-10-23T14:06:31;614.50;128.00
55331;DHT22;58851;42.984;20.336;2022-10-23T14:08:57;614.60;128.00
55331;DHT22;58851;42.984;20.336;2022-10-23T14:11:23;614.50;128.00
55331;DHT22;58851;42.984;20.336;2022-10-23T14:13:49;614.50;128.00
55331;DHT22;58851;42.984;20.336;2022-10-23T14:16:17;614.50;128.00
55331;DHT22;58851;42.984;20.336;2022-10-23T14:18:43;614.40;128.00
55331;DHT22;58851;42.984;20.336;2022-10-23T14:21:11;614.50;128.00
55331;DHT22;58851;42.984;20.336;2022-10-23T14:23:37;614.40;128.00
55331;DHT22;58851;42.984;20.336;2022-10-23T14:26:08;589.60;128.00
55331;DHT22;58851;42.984;20.336;2022-10-23T14:28:35;589.60;128.00
55331;DHT22;58851;42.984;20.336;2022-10-23T14:31:09;589.50;128.00
55331;DHT22;58851;42.984;20.336;2022-10-23T14:33:35;589.40;128.00
55331;DHT22;58851;42.984;20.336;2022-10-23T14:36:01;589.40;128.00
55331;DHT22;58851;42.984;20.336;2022-10-23T14:38:27;589.50;128.00
55331;DHT22;58851;42.984;20.336;2022-10-23T14:40:53;589.30;128.00
55331;DHT22;58851;42.984;20.336;2022-10-23T14:43:18;589.20;128.00
55331;DHT22;58851;42.984;20.336;2022-10-23T14:45:44;589.00;128.00
55331;DHT22;58851;42.984;20.336;2022-10-23T14:48:10;588.80;128.00
55331;DHT22;58851;42.984;20.336;2022-10-23T14:50:42;564.10;128.00
55331;DHT22;58851;42.984;20.336;2022-10-23T14:53:08;564.00;128.00
55331;DHT22;58851;42.984;20.336;2022-10-23T14:55:34;564.00;128.00
55331;DHT22;58851;42.984;20.336;2022-10-23T14:58:00;563.70;128.00
55331;DHT22;58851;42.984;20.336;2022-10-23T15:00:26;563.70;128.00
55331;DHT22;58851;42.984;20.336;2022-10-23T15:02:52;563.60;128.00
55331;DHT22;58851;42.984;20.336;2022-10-23T15:05:17;563.40;128.00
55331;DHT22;58851;42.984;20.336;2022-10-23T15:07:43;563.30;128.00
55331;DHT22;58851;42.984;20.336;2022-10-23T15:10:09;563.30;128.00
55331;DHT22;58851;42.984;20.336;2022-10-23T15:12:36;538.50;128.00
55331;DHT22;58851;42.984;20.336;2022-10-23T15:15:04;538.30;128.00
55331;DHT22;58851;42.984;20.336;2022-10-23T15:17:30;538.20;128.00
55331;DHT22;58851;42.984;20.336;2022-10-23T15:19:58;538.10;128.00
55331;DHT22;58851;42.984;20.336;2022-10-23T15:22:24;538.00;128.00
55331;DHT22;58851;42.984;20.336;2022-10-23T15:24:50;537.70;128.00
55331;DHT22;58851;42.984;20.336;2022-10-23T15:27:17;512.80;128.00
55331;DHT22;58851;42.984;20.336;2022-10-23T15:29:43;512.60;128.00
55331;DHT22;58851;42.984;20.336;2022-10-23T15:32:09;512.50;128.00
55331;DHT22;58851;42.984;20.336;2022-10-23T15:34:35;512.30;128.00
55331;DHT22;58851;42.984;20.336;2022-10-23T15:37:03;512.20;128.00
55331;DHT22;58851;42.984;20.336;2022-10-23T15:39:30;512.00;128.00
55331;DHT22;58851;42.984;20.336;2022-10-23T15:41:58;487.10;128.00
55331;DHT22;58851;42.984;20.336;2022-10-23T15:44:26;487.00;128.00
55331;DHT22;58851;42.984;20.336;2022-10-23T15:46:52;486.60;128.00
55331;DHT22;58851;42.984;20.336;2022-10-23T15:49:18;486.40;128.00
55331;DHT22;58851;42.984;20.336;2022-10-23T15:51:45;461.70;128.00
55331;DHT22;58851;42.984;20.336;2022-10-23T15:54:15;461.70;128.00
55331;DHT22;58851;42.984;20.336;2022-10-23T15:56:44;461.40;128.00
55331;DHT22;58851;42.984;20.336;2022-10-23T15:59:10;461.40;128.00
55331;DHT22;58851;42.984;20.336;2022-10-23T16:01:37;461.30;128.00
55331;DHT22;58851;42.984;20.336;2022-10-23T16:04:03;461.00;128.00
55331;DHT22;58851;42.984;20.336;2022-10-23T16:06:29;460.90;128.00
55331;DHT22;58851;42.984;20.336;2022-10-23T16:08:54;460.80;128.00
55331;DHT22;58851;42.984;20.336;2022-10-23T16:11:23;460.80;128.00
55331;DHT22;58851;42.984;20.336;2022-10-23T16:13:50;460.80;128.00
55331;DHT22;58851;42.984;20.336;2022-10-23T16:16:17;436.10;128.00
55331;DHT22;58851;42.984;20.336;2022-10-23T16:18:43;436.00;128.00
55331;DHT22;58851;42.984;20.336;2022-10-23T16:23:41;435.60;128.00
55331;DHT22;58851;42.984;20.336;2022-10-23T16:26:07;435.60;128.00
55331;DHT22;58851;42.984;20.336;2022-10-23T16:28:32;435.40;128.00
55331;DHT22;58851;42.984;20.336;2022-10-23T16:30:58;410.50;128.00
55331;DHT22;58851;42.984;20.336;2022-10-23T16:33:24;410.40;128.00
55331;DHT22;58851;42.984;20.336;2022-10-23T16:35:50;410.50;128.00
55331;DHT22;58851;42.984;20.336;2022-10-23T16:38:16;410.40;128.00
55331;DHT22;58851;42.984;20.336;2022-10-23T16:40:49;410.30;128.00
55331;DHT22;58851;42.984;20.336;2022-10-23T16:43:15;410.30;128.00
55331;DHT22;58851;42.984;20.336;2022-10-23T16:45:41;410.00;128.00
55331;DHT22;58851;42.984;20.336;2022-10-23T16:48:07;409.90;128.00
55331;DHT22;58851;42.984;20.336;2022-10-23T16:50:33;410.00;128.00
55331;DHT22;58851;42.984;20.336;2022-10-23T16:52:59;409.90;128.00
55331;DHT22;58851;42.984;20.336;2022-10-23T16:55:25;409.90;128.00